sensor_id;sensor_type;location;lat;lon;timestamp;P1;durP1;ratioP1;P2;durP2;ratioP2
31206;SDS011;17834;52.992;8.856;2023-02-03T00:00:29;26.02;;;10.48;;
31206;SDS011;17834;52.992;8.856;2023-02-03T00:02:55;24.92;;;10.77;;
31206;SDS011;17834;52.992;8.856;2023-02-03T00:05:21;24.35;;;10.13;;
31206;SDS011;17834;52.992;8.856;2023-02-03T00:07:47;24.85;;;10.45;;
31206;SDS011;17834;52.992;8.856;2023-02-03T00:10:13;25.23;;;9.93;;
31206;SDS011;17834;52.992;8.856;2023-02-03T00:12:39;19.20;;;9.48;;
31206;SDS011;17834;52.992;8.856;2023-02-03T00:15:05;25.42;;;10.20;;
31206;SDS011;17834;52.992;8.856;2023-02-03T00:17:32;20.23;;;9.43;;
31206;SDS011;17834;52.992;8.856;2023-02-03T00:19:57;17.08;;;9.20;;
31206;SDS011;17834;52.992;8.856;2023-02-03T00:22:23;22.60;;;9.20;;
31206;SDS011;17834;52.992;8.856;2023-02-03T00:24:49;22.58;;;8.82;;
31206;SDS011;17834;52.992;8.856;2023-02-03T00:27:15;23.05;;;9.77;;
31206;SDS011;17834;52.992;8.856;2023-02-03T00:29:41;22.05;;;8.20;;
31206;SDS011;17834;52.992;8.856;2023-02-03T00:32:07;20.00;;;8.98;;
31206;SDS011;17834;52.992;8.856;2023-02-03T00:34:33;18.63;;;8.63;;
31206;SDS011;17834;52.992;8.856;2023-02-03T00:36:59;14.90;;;7.75;;
31206;SDS011;17834;52.992;8.856;2023-02-03T00:39:25;19.92;;;8.00;;
31206;SDS011;17834;52.992;8.856;2023-02-03T00:41:51;21.10;;;9.55;;
31206;SDS011;17834;52.992;8.856;2023-02-03T00:44:17;21.42;;;9.32;;
31206;SDS011;17834;52.992;8.856;2023-02-03T00:46:43;21.90;;;9.05;;
31206;SDS011;17834;52.992;8.856;2023-02-03T00:49:09;18.33;;;7.60;;
31206;SDS011;17834;52.992;8.856;2023-02-03T00:51:34;17.25;;;8.27;;
31206;SDS011;17834;52.992;8.856;2023-02-03T00:54:00;13.10;;;6.50;;
31206;SDS011;17834;52.992;8.856;2023-02-03T00:56:26;15.45;;;7.57;;
31206;SDS011;17834;52.992;8.856;2023-02-03T00:58:52;18.33;;;7.10;;
31206;SDS011;17834;52.992;8.856;2023-02-03T01:01:18;16.52;;;7.72;;
31206;SDS011;17834;52.992;8.856;2023-02-03T01:03:44;18.33;;;7.85;;
31206;SDS011;17834;52.992;8.856;2023-02-03T01:08:39;14.00;;;6.65;;
31206;SDS011;17834;52.992;8.856;2023-02-03T01:11:10;17.10;;;6.28;;
31206;SDS011;17834;52.992;8.856;2023-02-03T01:13:36;12.43;;;5.60;;
31206;SDS011;17834;52.992;8.856;2023-02-03T01:16:02;14.30;;;6.22;;
31206;SDS011;17834;52.992;8.856;2023-02-03T01:18:31;13.23;;;6.00;;
31206;SDS011;17834;52.992;8.856;2023-02-03T01:20:57;12.00;;;6.40;;
31206;SDS011;17834;52.992;8.856;2023-02-03T01:23:23;14.10;;;5.75;;
31206;SDS011;17834;52.992;8.856;2023-02-03T01:25:49;12.77;;;5.70;;
31206;SDS011;17834;52.992;8.856;2023-02-03T01:28:15;9.38;;;4.90;;
31206;SDS011;17834;52.992;8.856;2023-02-03T01:30:41;10.73;;;5.00;;
31206;SDS011;17834;52.992;8.856;2023-02-03T01:33:07;12.23;;;4.68;;
31206;SDS011;17834;52.992;8.856;2023-02-03T01:35:33;12.63;;;5.50;;
31206;SDS011;17834;52.992;8.856;2023-02-03T01:37:59;12.40;;;5.00;;
31206;SDS011;17834;52.992;8.856;2023-02-03T01:40:25;13.00;;;5.03;;
31206;SDS011;17834;52.992;8.856;2023-02-03T01:42:51;11.68;;;4.63;;
31206;SDS011;17834;52.992;8.856;2023-02-03T01:45:17;7.90;;;4.60;;
31206;SDS011;17834;52.992;8.856;2023-02-03T01:47:54;10.65;;;5.50;;
31206;SDS011;17834;52.992;8.856;2023-02-03T01:50:24;11.95;;;4.78;;
31206;SDS011;17834;52.992;8.856;2023-02-03T01:52:52;10.20;;;4.88;;
31206;SDS011;17834;52.992;8.856;2023-02-03T01:55:20;15.77;;;4.90;;
31206;SDS011;17834;52.992;8.856;2023-02-03T01:57:53;14.13;;;5.40;;
31206;SDS011;17834;52.992;8.856;2023-02-03T02:00:20;10.18;;;5.30;;
31206;SDS011;17834;52.992;8.856;2023-02-03T02:02:46;14.55;;;5.50;;
31206;SDS011;17834;52.992;8.856;2023-02-03T02:05:16;15.57;;;5.45;;
31206;SDS011;17834;52.992;8.856;2023-02-03T02:07:44;11.65;;;5.53;;
31206;SDS011;17834;52.992;8.856;2023-02-03T02:10:10;9.50;;;5.13;;
31206;SDS011;17834;52.992;8.856;2023-02-03T02:12:37;11.43;;;5.90;;
31206;SDS011;17834;52.992;8.856;2023-02-03T02:15:03;12.48;;;5.22;;
31206;SDS011;17834;52.992;8.856;2023-02-03T02:20:06;12.10;;;5.57;;
31206;SDS011;17834;52.992;8.856;2023-02-03T02:22:43;12.60;;;6.25;;
31206;SDS011;17834;52.992;8.856;2023-02-03T02:28:08;10.75;;;5.43;;
31206;SDS011;17834;52.992;8.856;2023-02-03T02:30:53;13.98;;;4.97;;
31206;SDS011;17834;52.992;8.856;2023-02-03T02:33:27;12.13;;;5.47;;
31206;SDS011;17834;52.992;8.856;2023-02-03T02:41:05;10.98;;;4.93;;
31206;SDS011;17834;52.992;8.856;2023-02-03T02:43:41;12.65;;;5.57;;
31206;SDS011;17834;52.992;8.856;2023-02-03T02:46:09;12.98;;;4.80;;
31206;SDS011;17834;52.992;8.856;2023-02-03T02:48:47;15.95;;;5.15;;
31206;SDS011;17834;52.992;8.856;2023-02-03T02:51:17;11.73;;;5.65;;
31206;SDS011;17834;52.992;8.856;2023-02-03T02:53:45;9.15;;;4.32;;
31206;SDS011;17834;52.992;8.856;2023-02-03T02:56:12;14.07;;;4.75;;
31206;SDS011;17834;52.992;8.856;2023-02-03T02:58:39;9.05;;;5.20;;
31206;SDS011;17834;52.992;8.856;2023-02-03T03:01:07;8.40;;;4.28;;
31206;SDS011;17834;52.992;8.856;2023-02-03T03:03:33;12.40;;;4.60;;
31206;SDS011;17834;52.992;8.856;2023-02-03T03:06:03;13.18;;;4.65;;
31206;SDS011;17834;52.992;8.856;2023-02-03T03:08:35;12.82;;;4.18;;
31206;SDS011;17834;52.992;8.856;2023-02-03T03:11:02;12.73;;;4.57;;
31206;SDS011;17834;52.992;8.856;2023-02-03T03:13:29;6.88;;;3.60;;
31206;SDS011;17834;52.992;8.856;2023-02-03T03:15:56;6.22;;;3.55;;
31206;SDS011;17834;52.992;8.856;2023-02-03T03:18:25;11.68;;;3.78;;
31206;SDS011;17834;52.992;8.856;2023-02-03T03:20:52;9.93;;;3.75;;
31206;SDS011;17834;52.992;8.856;2023-02-03T03:23:27;8.02;;;3.28;;
31206;SDS011;17834;52.992;8.856;2023-02-03T03:25:57;7.70;;;3.88;;
31206;SDS011;17834;52.992;8.856;2023-02-03T03:28:26;7.15;;;3.67;;
31206;SDS011;17834;52.992;8.856;2023-02-03T03:30:56;16.70;;;3.92;;
31206;SDS011;17834;52.992;8.856;2023-02-03T03:33:22;7.93;;;3.55;;
31206;SDS011;17834;52.992;8.856;2023-02-03T03:35:51;8.20;;;3.65;;
31206;SDS011;17834;52.992;8.856;2023-02-03T03:38:19;9.38;;;3.67;;
31206;SDS011;17834;52.992;8.856;2023-02-03T03:40:51;8.18;;;3.30;;
31206;SDS011;17834;52.992;8.856;2023-02-03T03:43:20;6.88;;;3.15;;
31206;SDS011;17834;52.992;8.856;2023-02-03T03:46:00;10.00;;;3.17;;
31206;SDS011;17834;52.992;8.856;2023-02-03T03:48:39;12.70;;;3.60;;
31206;SDS011;17834;52.992;8.856;2023-02-03T03:51:13;9.27;;;3.50;;
31206;SDS011;17834;52.992;8.856;2023-02-03T03:53:41;7.07;;;3.20;;
31206;SDS011;17834;52.992;8.856;2023-02-03T03:56:09;8.93;;;3.53;;
31206;SDS011;17834;52.992;8.856;2023-02-03T03:58:38;9.60;;;3.38;;
31206;SDS011;17834;52.992;8.856;2023-02-03T04:01:09;10.95;;;3.72;;
31206;SDS011;17834;52.992;8.856;2023-02-03T04:03:38;9.52;;;3.10;;
31206;SDS011;17834;52.992;8.856;2023-02-03T04:06:05;8.95;;;3.90;;
31206;SDS011;17834;52.992;8.856;2023-02-03T04:08:31;6.55;;;3.20;;
31206;SDS011;17834;52.992;8.856;2023-02-03T04:10:57;7.00;;;3.40;;
31206;SDS011;17834;52.992;8.856;2023-02-03T04:13:23;10.30;;;3.83;;
31206;SDS011;17834;52.992;8.856;2023-02-03T04:15:49;10.20;;;3.45;;
31206;SDS011;17834;52.992;8.856;2023-02-03T04:18:15;11.05;;;3.97;;
31206;SDS011;17834;52.992;8.856;2023-02-03T04:20:41;10.88;;;4.05;;
31206;SDS011;17834;52.992;8.856;2023-02-03T04:23:07;9.63;;;3.97;;
31206;SDS011;17834;52.992;8.856;2023-02-03T04:25:33;10.10;;;4.35;;
31206;SDS011;17834;52.992;8.856;2023-02-03T04:27:59;9.98;;;3.97;;
31206;SDS011;17834;52.992;8.856;2023-02-03T04:30:25;8.68;;;3.72;;
31206;SDS011;17834;52.992;8.856;2023-02-03T04:32:52;6.00;;;3.35;;
31206;SDS011;17834;52.992;8.856;2023-02-03T04:35:18;12.10;;;3.90;;
31206;SDS011;17834;52.992;8.856;2023-02-03T04:37:44;9.10;;;3.88;;
31206;SDS011;17834;52.992;8.856;2023-02-03T04:40:10;12.15;;;3.95;;
31206;SDS011;17834;52.992;8.856;2023-02-03T04:42:37;8.05;;;3.72;;
31206;SDS011;17834;52.992;8.856;2023-02-03T04:45:03;9.55;;;3.70;;
31206;SDS011;17834;52.992;8.856;2023-02-03T04:47:29;9.73;;;3.65;;
31206;SDS011;17834;52.992;8.856;2023-02-03T04:49:55;7.78;;;3.63;;
31206;SDS011;17834;52.992;8.856;2023-02-03T04:52:21;9.35;;;3.45;;
31206;SDS011;17834;52.992;8.856;2023-02-03T04:54:47;7.65;;;3.78;;
31206;SDS011;17834;52.992;8.856;2023-02-03T04:57:13;9.35;;;3.25;;
31206;SDS011;17834;52.992;8.856;2023-02-03T04:59:39;11.23;;;4.20;;
31206;SDS011;17834;52.992;8.856;2023-02-03T05:02:05;9.38;;;4.20;;
31206;SDS011;17834;52.992;8.856;2023-02-03T05:04:32;8.73;;;3.97;;
31206;SDS011;17834;52.992;8.856;2023-02-03T05:06:58;8.00;;;3.90;;
31206;SDS011;17834;52.992;8.856;2023-02-03T05:09:24;10.95;;;3.88;;
31206;SDS011;17834;52.992;8.856;2023-02-03T05:11:50;9.52;;;3.55;;
31206;SDS011;17834;52.992;8.856;2023-02-03T05:14:16;8.57;;;3.60;;
31206;SDS011;17834;52.992;8.856;2023-02-03T05:16:42;15.00;;;4.70;;
31206;SDS011;17834;52.992;8.856;2023-02-03T05:19:08;11.15;;;3.67;;
31206;SDS011;17834;52.992;8.856;2023-02-03T05:21:34;12.35;;;4.10;;
31206;SDS011;17834;52.992;8.856;2023-02-03T05:24:00;11.25;;;3.53;;
31206;SDS011;17834;52.992;8.856;2023-02-03T05:26:27;11.85;;;3.42;;
31206;SDS011;17834;52.992;8.856;2023-02-03T05:28:53;10.90;;;4.30;;
31206;SDS011;17834;52.992;8.856;2023-02-03T05:31:19;8.45;;;3.58;;
31206;SDS011;17834;52.992;8.856;2023-02-03T05:33:45;9.70;;;4.20;;
31206;SDS011;17834;52.992;8.856;2023-02-03T05:36:11;9.05;;;3.33;;
31206;SDS011;17834;52.992;8.856;2023-02-03T05:38:37;9.73;;;3.88;;
31206;SDS011;17834;52.992;8.856;2023-02-03T05:41:03;8.85;;;3.65;;
31206;SDS011;17834;52.992;8.856;2023-02-03T05:43:47;8.80;;;3.92;;
31206;SDS011;17834;52.992;8.856;2023-02-03T05:46:13;7.80;;;3.40;;
31206;SDS011;17834;52.992;8.856;2023-02-03T05:48:39;7.85;;;3.55;;
31206;SDS011;17834;52.992;8.856;2023-02-03T05:51:05;10.63;;;3.70;;
31206;SDS011;17834;52.992;8.856;2023-02-03T05:53:31;7.38;;;4.10;;
31206;SDS011;17834;52.992;8.856;2023-02-03T05:55:57;8.70;;;3.60;;
31206;SDS011;17834;52.992;8.856;2023-02-03T05:58:23;9.23;;;4.25;;
31206;SDS011;17834;52.992;8.856;2023-02-03T06:00:49;11.38;;;3.95;;
31206;SDS011;17834;52.992;8.856;2023-02-03T06:03:15;14.40;;;4.68;;
31206;SDS011;17834;52.992;8.856;2023-02-03T06:05:41;14.20;;;4.35;;
31206;SDS011;17834;52.992;8.856;2023-02-03T06:08:08;10.73;;;4.28;;
31206;SDS011;17834;52.992;8.856;2023-02-03T06:10:34;12.75;;;5.72;;
31206;SDS011;17834;52.992;8.856;2023-02-03T06:13:06;16.58;;;4.93;;
31206;SDS011;17834;52.992;8.856;2023-02-03T06:15:32;11.35;;;4.63;;
31206;SDS011;17834;52.992;8.856;2023-02-03T06:17:58;11.50;;;4.68;;
31206;SDS011;17834;52.992;8.856;2023-02-03T06:20:24;11.20;;;4.70;;
31206;SDS011;17834;52.992;8.856;2023-02-03T06:22:50;16.77;;;5.13;;
31206;SDS011;17834;52.992;8.856;2023-02-03T06:25:16;9.32;;;4.80;;
31206;SDS011;17834;52.992;8.856;2023-02-03T06:27:42;8.40;;;4.90;;
31206;SDS011;17834;52.992;8.856;2023-02-03T06:30:08;13.00;;;5.00;;
31206;SDS011;17834;52.992;8.856;2023-02-03T06:32:35;14.45;;;5.03;;
31206;SDS011;17834;52.992;8.856;2023-02-03T06:35:01;12.30;;;4.78;;
31206;SDS011;17834;52.992;8.856;2023-02-03T06:37:27;9.32;;;4.30;;
31206;SDS011;17834;52.992;8.856;2023-02-03T06:39:53;10.60;;;5.18;;
31206;SDS011;17834;52.992;8.856;2023-02-03T06:42:18;16.25;;;5.43;;
31206;SDS011;17834;52.992;8.856;2023-02-03T06:44:44;11.50;;;4.55;;
31206;SDS011;17834;52.992;8.856;2023-02-03T06:47:11;11.35;;;5.18;;
31206;SDS011;17834;52.992;8.856;2023-02-03T06:49:37;14.15;;;5.13;;
31206;SDS011;17834;52.992;8.856;2023-02-03T06:52:03;9.75;;;4.72;;
31206;SDS011;17834;52.992;8.856;2023-02-03T06:54:29;15.40;;;4.70;;
31206;SDS011;17834;52.992;8.856;2023-02-03T06:56:55;13.88;;;4.90;;
31206;SDS011;17834;52.992;8.856;2023-02-03T06:59:21;9.82;;;4.07;;
31206;SDS011;17834;52.992;8.856;2023-02-03T07:01:47;17.35;;;3.75;;
31206;SDS011;17834;52.992;8.856;2023-02-03T07:04:13;10.90;;;4.05;;
31206;SDS011;17834;52.992;8.856;2023-02-03T07:06:39;10.02;;;4.15;;
31206;SDS011;17834;52.992;8.856;2023-02-03T07:09:05;14.43;;;4.07;;
31206;SDS011;17834;52.992;8.856;2023-02-03T07:11:31;8.27;;;4.22;;
31206;SDS011;17834;52.992;8.856;2023-02-03T07:13:57;10.00;;;4.03;;
31206;SDS011;17834;52.992;8.856;2023-02-03T07:16:23;10.93;;;3.63;;
31206;SDS011;17834;52.992;8.856;2023-02-03T07:18:51;11.32;;;3.38;;
31206;SDS011;17834;52.992;8.856;2023-02-03T07:21:17;9.10;;;4.72;;
31206;SDS011;17834;52.992;8.856;2023-02-03T07:23:45;12.13;;;3.50;;
31206;SDS011;17834;52.992;8.856;2023-02-03T07:26:12;7.97;;;3.70;;
31206;SDS011;17834;52.992;8.856;2023-02-03T07:28:38;7.03;;;3.00;;
31206;SDS011;17834;52.992;8.856;2023-02-03T07:31:04;9.23;;;3.25;;
31206;SDS011;17834;52.992;8.856;2023-02-03T07:33:32;13.05;;;3.60;;
31206;SDS011;17834;52.992;8.856;2023-02-03T07:35:58;13.23;;;3.70;;
31206;SDS011;17834;52.992;8.856;2023-02-03T07:38:25;12.82;;;3.50;;
31206;SDS011;17834;52.992;8.856;2023-02-03T07:40:51;11.45;;;3.30;;
31206;SDS011;17834;52.992;8.856;2023-02-03T07:43:17;8.13;;;2.83;;
31206;SDS011;17834;52.992;8.856;2023-02-03T07:45:44;7.95;;;2.70;;
31206;SDS011;17834;52.992;8.856;2023-02-03T07:48:10;9.70;;;3.13;;
31206;SDS011;17834;52.992;8.856;2023-02-03T07:50:36;8.50;;;2.60;;
31206;SDS011;17834;52.992;8.856;2023-02-03T07:53:02;4.53;;;2.50;;
31206;SDS011;17834;52.992;8.856;2023-02-03T07:55:28;9.05;;;2.75;;
31206;SDS011;17834;52.992;8.856;2023-02-03T07:57:55;5.25;;;2.50;;
31206;SDS011;17834;52.992;8.856;2023-02-03T08:00:21;7.55;;;3.03;;
31206;SDS011;17834;52.992;8.856;2023-02-03T08:02:48;10.63;;;2.72;;
31206;SDS011;17834;52.992;8.856;2023-02-03T08:05:14;10.23;;;2.72;;
31206;SDS011;17834;52.992;8.856;2023-02-03T08:07:40;6.80;;;2.47;;
31206;SDS011;17834;52.992;8.856;2023-02-03T08:10:07;10.48;;;2.90;;
31206;SDS011;17834;52.992;8.856;2023-02-03T08:12:33;10.07;;;2.88;;
31206;SDS011;17834;52.992;8.856;2023-02-03T08:14:59;10.60;;;3.15;;
31206;SDS011;17834;52.992;8.856;2023-02-03T08:17:25;8.75;;;2.70;;
31206;SDS011;17834;52.992;8.856;2023-02-03T08:19:51;17.00;;;2.85;;
31206;SDS011;17834;52.992;8.856;2023-02-03T08:22:17;11.20;;;2.55;;
31206;SDS011;17834;52.992;8.856;2023-02-03T08:24:43;15.27;;;2.70;;
31206;SDS011;17834;52.992;8.856;2023-02-03T08:27:20;8.82;;;2.45;;
31206;SDS011;17834;52.992;8.856;2023-02-03T08:29:46;10.88;;;2.75;;
31206;SDS011;17834;52.992;8.856;2023-02-03T08:32:13;10.75;;;3.08;;
31206;SDS011;17834;52.992;8.856;2023-02-03T08:34:39;4.32;;;2.03;;
31206;SDS011;17834;52.992;8.856;2023-02-03T08:37:05;11.00;;;2.30;;
31206;SDS011;17834;52.992;8.856;2023-02-03T08:39:32;10.65;;;2.30;;
31206;SDS011;17834;52.992;8.856;2023-02-03T08:41:59;6.10;;;2.42;;
31206;SDS011;17834;52.992;8.856;2023-02-03T08:44:25;11.98;;;2.83;;
31206;SDS011;17834;52.992;8.856;2023-02-03T08:46:51;9.02;;;2.60;;
31206;SDS011;17834;52.992;8.856;2023-02-03T08:49:18;8.13;;;2.20;;
31206;SDS011;17834;52.992;8.856;2023-02-03T08:51:44;13.98;;;2.50;;
31206;SDS011;17834;52.992;8.856;2023-02-03T08:54:10;8.50;;;2.72;;
31206;SDS011;17834;52.992;8.856;2023-02-03T08:56:36;6.45;;;2.40;;
31206;SDS011;17834;52.992;8.856;2023-02-03T08:59:02;22.20;;;2.80;;
31206;SDS011;17834;52.992;8.856;2023-02-03T09:01:28;12.73;;;2.85;;
31206;SDS011;17834;52.992;8.856;2023-02-03T09:03:54;10.20;;;2.00;;
31206;SDS011;17834;52.992;8.856;2023-02-03T09:06:20;14.25;;;2.85;;
31206;SDS011;17834;52.992;8.856;2023-02-03T09:08:46;10.50;;;2.67;;
31206;SDS011;17834;52.992;8.856;2023-02-03T09:11:13;16.08;;;2.72;;
31206;SDS011;17834;52.992;8.856;2023-02-03T09:13:40;10.63;;;2.88;;
31206;SDS011;17834;52.992;8.856;2023-02-03T09:16:10;13.93;;;2.97;;
31206;SDS011;17834;52.992;8.856;2023-02-03T09:18:36;20.38;;;4.43;;
31206;SDS011;17834;52.992;8.856;2023-02-03T09:21:02;15.35;;;2.60;;
31206;SDS011;17834;52.992;8.856;2023-02-03T09:23:29;15.68;;;2.22;;
31206;SDS011;17834;52.992;8.856;2023-02-03T09:25:55;7.85;;;1.75;;
31206;SDS011;17834;52.992;8.856;2023-02-03T09:28:21;10.68;;;1.70;;
31206;SDS011;17834;52.992;8.856;2023-02-03T09:30:47;13.35;;;1.67;;
31206;SDS011;17834;52.992;8.856;2023-02-03T09:33:13;11.77;;;2.03;;
31206;SDS011;17834;52.992;8.856;2023-02-03T09:35:39;14.85;;;2.50;;
31206;SDS011;17834;52.992;8.856;2023-02-03T09:38:05;19.30;;;3.20;;
31206;SDS011;17834;52.992;8.856;2023-02-03T09:40:34;16.17;;;2.20;;
31206;SDS011;17834;52.992;8.856;2023-02-03T09:45:36;11.35;;;2.08;;
31206;SDS011;17834;52.992;8.856;2023-02-03T09:48:11;10.52;;;1.92;;
31206;SDS011;17834;52.992;8.856;2023-02-03T09:50:39;11.15;;;1.98;;
31206;SDS011;17834;52.992;8.856;2023-02-03T09:53:09;13.75;;;2.25;;
31206;SDS011;17834;52.992;8.856;2023-02-03T09:55:39;9.07;;;1.92;;
31206;SDS011;17834;52.992;8.856;2023-02-03T09:58:13;24.30;;;2.80;;
31206;SDS011;17834;52.992;8.856;2023-02-03T10:00:46;19.27;;;3.30;;
31206;SDS011;17834;52.992;8.856;2023-02-03T10:03:20;10.00;;;2.42;;
31206;SDS011;17834;52.992;8.856;2023-02-03T10:05:50;17.50;;;2.67;;
31206;SDS011;17834;52.992;8.856;2023-02-03T10:10:48;14.13;;;2.58;;
31206;SDS011;17834;52.992;8.856;2023-02-03T10:13:35;18.15;;;3.30;;
31206;SDS011;17834;52.992;8.856;2023-02-03T10:16:05;19.02;;;3.72;;
31206;SDS011;17834;52.992;8.856;2023-02-03T10:18:47;16.55;;;2.60;;
31206;SDS011;17834;52.992;8.856;2023-02-03T10:23:59;23.63;;;2.72;;
31206;SDS011;17834;52.992;8.856;2023-02-03T10:26:26;15.30;;;2.80;;
31206;SDS011;17834;52.992;8.856;2023-02-03T10:28:54;17.30;;;2.25;;
31206;SDS011;17834;52.992;8.856;2023-02-03T10:31:22;15.10;;;2.53;;
31206;SDS011;17834;52.992;8.856;2023-02-03T10:34:08;21.67;;;2.90;;
31206;SDS011;17834;52.992;8.856;2023-02-03T10:36:42;11.65;;;2.17;;
31206;SDS011;17834;52.992;8.856;2023-02-03T10:41:36;21.33;;;4.13;;
31206;SDS011;17834;52.992;8.856;2023-02-03T10:44:04;14.07;;;2.47;;
31206;SDS011;17834;52.992;8.856;2023-02-03T10:46:32;21.85;;;3.67;;
31206;SDS011;17834;52.992;8.856;2023-02-03T10:48:59;27.85;;;4.40;;
31206;SDS011;17834;52.992;8.856;2023-02-03T10:51:29;21.80;;;3.45;;
31206;SDS011;17834;52.992;8.856;2023-02-03T10:53:55;20.38;;;2.97;;
31206;SDS011;17834;52.992;8.856;2023-02-03T10:56:25;21.00;;;2.85;;
31206;SDS011;17834;52.992;8.856;2023-02-03T10:58:52;21.17;;;3.40;;
31206;SDS011;17834;52.992;8.856;2023-02-03T11:01:20;18.60;;;2.42;;
31206;SDS011;17834;52.992;8.856;2023-02-03T11:03:54;26.75;;;4.07;;
31206;SDS011;17834;52.992;8.856;2023-02-03T11:06:21;11.17;;;2.30;;
31206;SDS011;17834;52.992;8.856;2023-02-03T11:08:48;19.50;;;2.58;;
31206;SDS011;17834;52.992;8.856;2023-02-03T11:11:19;18.33;;;3.70;;
31206;SDS011;17834;52.992;8.856;2023-02-03T11:13:45;17.48;;;3.47;;
31206;SDS011;17834;52.992;8.856;2023-02-03T11:16:16;15.27;;;2.67;;
31206;SDS011;17834;52.992;8.856;2023-02-03T11:19:03;20.73;;;2.85;;
31206;SDS011;17834;52.992;8.856;2023-02-03T11:24:03;11.65;;;2.60;;
31206;SDS011;17834;52.992;8.856;2023-02-03T11:26:32;28.03;;;3.63;;
31206;SDS011;17834;52.992;8.856;2023-02-03T11:29:00;21.80;;;2.88;;
31206;SDS011;17834;52.992;8.856;2023-02-03T11:31:27;22.92;;;3.67;;
31206;SDS011;17834;52.992;8.856;2023-02-03T11:33:55;27.35;;;3.70;;
31206;SDS011;17834;52.992;8.856;2023-02-03T11:36:24;25.20;;;3.83;;
31206;SDS011;17834;52.992;8.856;2023-02-03T11:38:51;20.05;;;4.32;;
31206;SDS011;17834;52.992;8.856;2023-02-03T11:41:35;19.10;;;3.22;;
31206;SDS011;17834;52.992;8.856;2023-02-03T11:44:05;14.80;;;2.67;;
31206;SDS011;17834;52.992;8.856;2023-02-03T11:46:35;15.05;;;2.65;;
31206;SDS011;17834;52.992;8.856;2023-02-03T11:51:45;21.38;;;3.50;;
31206;SDS011;17834;52.992;8.856;2023-02-03T11:54:22;22.23;;;3.28;;
31206;SDS011;17834;52.992;8.856;2023-02-03T11:59:22;16.77;;;3.80;;
31206;SDS011;17834;52.992;8.856;2023-02-03T12:04:42;17.70;;;2.85;;
31206;SDS011;17834;52.992;8.856;2023-02-03T12:07:31;26.20;;;4.88;;
31206;SDS011;17834;52.992;8.856;2023-02-03T12:12:43;18.15;;;2.42;;
31206;SDS011;17834;52.992;8.856;2023-02-03T12:25:25;14.68;;;3.00;;
31206;SDS011;17834;52.992;8.856;2023-02-03T12:27:55;20.85;;;2.58;;
31206;SDS011;17834;52.992;8.856;2023-02-03T12:30:31;12.35;;;2.53;;
31206;SDS011;17834;52.992;8.856;2023-02-03T12:35:59;18.38;;;3.10;;
31206;SDS011;17834;52.992;8.856;2023-02-03T12:38:30;17.45;;;2.50;;
31206;SDS011;17834;52.992;8.856;2023-02-03T12:41:00;17.83;;;2.75;;
31206;SDS011;17834;52.992;8.856;2023-02-03T12:43:29;16.13;;;2.45;;
31206;SDS011;17834;52.992;8.856;2023-02-03T12:46:03;17.45;;;2.92;;
31206;SDS011;17834;52.992;8.856;2023-02-03T12:48:32;21.88;;;4.43;;
31206;SDS011;17834;52.992;8.856;2023-02-03T12:51:02;25.38;;;3.70;;
31206;SDS011;17834;52.992;8.856;2023-02-03T12:53:32;16.85;;;3.17;;
31206;SDS011;17834;52.992;8.856;2023-02-03T12:58:39;12.63;;;2.55;;
31206;SDS011;17834;52.992;8.856;2023-02-03T13:01:17;13.40;;;2.47;;
31206;SDS011;17834;52.992;8.856;2023-02-03T13:03:45;16.00;;;2.05;;
31206;SDS011;17834;52.992;8.856;2023-02-03T13:06:15;18.27;;;3.63;;
31206;SDS011;17834;52.992;8.856;2023-02-03T13:08:49;16.25;;;2.88;;
31206;SDS011;17834;52.992;8.856;2023-02-03T13:13:57;15.15;;;2.60;;
31206;SDS011;17834;52.992;8.856;2023-02-03T13:16:27;16.58;;;2.63;;
31206;SDS011;17834;52.992;8.856;2023-02-03T13:19:01;14.30;;;2.40;;
31206;SDS011;17834;52.992;8.856;2023-02-03T13:21:28;14.48;;;2.08;;
31206;SDS011;17834;52.992;8.856;2023-02-03T13:23:54;12.98;;;2.45;;
31206;SDS011;17834;52.992;8.856;2023-02-03T13:28:57;11.90;;;3.05;;
31206;SDS011;17834;52.992;8.856;2023-02-03T13:33:56;14.57;;;2.38;;
31206;SDS011;17834;52.992;8.856;2023-02-03T13:39:16;13.65;;;3.13;;
31206;SDS011;17834;52.992;8.856;2023-02-03T13:41:46;16.42;;;3.45;;
31206;SDS011;17834;52.992;8.856;2023-02-03T13:44:14;16.08;;;3.13;;
31206;SDS011;17834;52.992;8.856;2023-02-03T13:46:44;19.20;;;3.53;;
31206;SDS011;17834;52.992;8.856;2023-02-03T13:49:16;14.20;;;3.28;;
31206;SDS011;17834;52.992;8.856;2023-02-03T13:51:45;18.88;;;3.72;;
31206;SDS011;17834;52.992;8.856;2023-02-03T13:56:56;13.93;;;3.55;;
31206;SDS011;17834;52.992;8.856;2023-02-03T13:59:28;16.23;;;2.13;;
31206;SDS011;17834;52.992;8.856;2023-02-03T14:02:28;15.15;;;2.75;;
31206;SDS011;17834;52.992;8.856;2023-02-03T14:04:57;17.65;;;2.53;;
31206;SDS011;17834;52.992;8.856;2023-02-03T14:07:27;15.57;;;2.70;;
31206;SDS011;17834;52.992;8.856;2023-02-03T14:15:22;13.75;;;2.25;;
31206;SDS011;17834;52.992;8.856;2023-02-03T14:17:58;12.90;;;2.28;;
31206;SDS011;17834;52.992;8.856;2023-02-03T14:22:54;19.30;;;3.80;;
31206;SDS011;17834;52.992;8.856;2023-02-03T14:25:21;17.00;;;3.35;;
31206;SDS011;17834;52.992;8.856;2023-02-03T14:27:57;13.88;;;2.78;;
31206;SDS011;17834;52.992;8.856;2023-02-03T14:30:23;14.98;;;2.28;;
31206;SDS011;17834;52.992;8.856;2023-02-03T14:32:53;14.90;;;2.58;;
31206;SDS011;17834;52.992;8.856;2023-02-03T14:35:24;16.13;;;2.35;;
31206;SDS011;17834;52.992;8.856;2023-02-03T14:37:54;20.80;;;3.20;;
31206;SDS011;17834;52.992;8.856;2023-02-03T14:43:15;15.18;;;2.13;;
31206;SDS011;17834;52.992;8.856;2023-02-03T14:53:34;17.35;;;2.90;;
31206;SDS011;17834;52.992;8.856;2023-02-03T14:56:09;23.08;;;3.13;;
31206;SDS011;17834;52.992;8.856;2023-02-03T14:58:41;17.95;;;2.60;;
31206;SDS011;17834;52.992;8.856;2023-02-03T15:01:21;18.42;;;2.83;;
31206;SDS011;17834;52.992;8.856;2023-02-03T15:04:33;23.83;;;3.30;;
31206;SDS011;17834;52.992;8.856;2023-02-03T15:06:36;18.25;;;2.33;;
31206;SDS011;17834;52.992;8.856;2023-02-03T15:09:02;13.43;;;2.33;;
31206;SDS011;17834;52.992;8.856;2023-02-03T15:11:42;21.02;;;3.10;;
31206;SDS011;17834;52.992;8.856;2023-02-03T15:16:43;20.55;;;3.17;;
31206;SDS011;17834;52.992;8.856;2023-02-03T15:19:19;16.25;;;2.47;;
31206;SDS011;17834;52.992;8.856;2023-02-03T15:21:47;23.58;;;3.03;;
31206;SDS011;17834;52.992;8.856;2023-02-03T15:24:14;18.17;;;3.15;;
31206;SDS011;17834;52.992;8.856;2023-02-03T15:26:47;16.40;;;2.53;;
31206;SDS011;17834;52.992;8.856;2023-02-03T15:29:21;16.23;;;2.50;;
31206;SDS011;17834;52.992;8.856;2023-02-03T15:31:48;15.10;;;2.88;;
31206;SDS011;17834;52.992;8.856;2023-02-03T15:34:22;14.02;;;4.03;;
31206;SDS011;17834;52.992;8.856;2023-02-03T15:36:51;12.75;;;2.70;;
31206;SDS011;17834;52.992;8.856;2023-02-03T15:39:36;24.38;;;3.38;;
31206;SDS011;17834;52.992;8.856;2023-02-03T15:42:07;16.88;;;2.60;;
31206;SDS011;17834;52.992;8.856;2023-02-03T15:44:57;21.45;;;3.35;;
31206;SDS011;17834;52.992;8.856;2023-02-03T15:47:27;20.38;;;2.58;;
31206;SDS011;17834;52.992;8.856;2023-02-03T15:50:00;19.98;;;3.10;;
31206;SDS011;17834;52.992;8.856;2023-02-03T15:52:27;17.98;;;2.53;;
31206;SDS011;17834;52.992;8.856;2023-02-03T15:54:57;23.83;;;3.90;;
31206;SDS011;17834;52.992;8.856;2023-02-03T15:57:26;17.60;;;3.30;;
31206;SDS011;17834;52.992;8.856;2023-02-03T16:04:54;20.15;;;3.40;;
31206;SDS011;17834;52.992;8.856;2023-02-03T16:07:22;15.18;;;3.75;;
31206;SDS011;17834;52.992;8.856;2023-02-03T16:09:52;21.35;;;3.67;;
31206;SDS011;17834;52.992;8.856;2023-02-03T16:12:26;22.10;;;3.33;;
31206;SDS011;17834;52.992;8.856;2023-02-03T16:14:53;25.17;;;3.60;;
31206;SDS011;17834;52.992;8.856;2023-02-03T16:22:43;20.77;;;4.80;;